Time;durP1;ratioP1;P1;durP2;ratioP2;P2;SDS_P1;SDS_P2;PMS_P1;PMS_P2;Temp;Humidity;BMP_temperature;BMP_pressure;BME280_temperature;BME280_humidity;BME280_pressure;Samples;Min_cycle;Max_cycle;Signal;HPM_P1;HPM_P2
2023/03/10 00:00:37;;;;;;;9.15;5.28;;;;;;;11.15;nan;-24128.47;5013081;28;20180;-72
2023/03/10 00:03:02;;;;;;;12.20;5.28;;;;;;;11.15;nan;-24128.34;5013198;28;20195;-71
2023/03/10 00:05:28;;;;;;;8.20;4.68;;;;;;;11.25;nan;-24131.16;5027270;28;20238;-72
2023/03/10 00:07:53;;;;;;;9.25;5.38;;;;;;;10.87;nan;-24120.59;5006686;28;20564;-70
2023/03/10 00:10:18;;;;;;;8.75;5.03;;;;;;;11.05;nan;-24125.81;5013335;28;20176;-73
2023/03/10 00:12:44;;;;;;;9.07;6.03;;;;;;;11.17;nan;-24129.03;5012953;28;20292;-74
2023/03/10 00:15:11;;;;;;;11.75;5.43;;;;;;;10.75;nan;-24117.19;5013524;28;20184;-71
2023/03/10 00:17:36;;;;;;;8.10;4.32;;;;;;;10.92;nan;-24122.00;5013142;28;20647;-72
2023/03/10 00:20:06;;;;;;;8.25;5.00;;;;;;;10.93;nan;-24122.28;5016269;28;20206;-70
2023/03/10 00:22:33;;;;;;;10.38;4.45;;;;;;;10.91;nan;-24121.72;5032065;28;20244;-71
2023/03/10 00:24:59;;;;;;;9.48;4.95;;;;;;;11.13;nan;-24127.78;5013200;28;20200;-71
2023/03/10 00:27:25;;;;;;;8.77;4.60;;;;;;;11.09;nan;-24126.78;5012887;28;20176;-70
2023/03/10 00:29:51;;;;;;;10.25;5.03;;;;;;;11.27;nan;-24131.72;5012642;28;20180;-70
2023/03/10 00:32:17;;;;;;;9.38;5.05;;;;;;;11.02;nan;-24124.81;5013052;28;20179;-71
2023/03/10 00:34:42;;;;;;;10.05;5.13;;;;;;;11.05;nan;-24125.66;5012753;28;20552;-70
2023/03/10 00:37:08;;;;;;;9.55;4.65;;;;;;;10.89;nan;-24121.16;5012781;28;20638;-72
2023/03/10 00:39:34;;;;;;;9.55;4.90;;;;;;;10.56;nan;-24112.13;5013050;28;20196;-73
2023/03/10 00:41:59;;;;;;;8.95;5.15;;;;;;;10.54;nan;-24111.56;5009690;28;20215;-73
2023/03/10 00:44:27;;;;;;;23.23;4.93;;;;;;;10.68;nan;-24115.38;5009108;28;20226;-72
2023/03/10 00:46:53;;;;;;;8.98;4.75;;;;;;;10.42;nan;-24108.16;5012663;28;20184;-70
2023/03/10 00:49:18;;;;;;;10.83;4.57;;;;;;;10.24;nan;-24103.09;5012452;28;20548;-71
2023/03/10 00:51:43;;;;;;;11.30;5.77;;;;;;;10.48;nan;-24109.72;5044178;28;20211;-70
2023/03/10 00:54:09;;;;;;;12.63;5.00;;;;;;;10.19;nan;-24101.81;5011414;28;20184;-71
2023/03/10 00:56:34;;;;;;;7.00;3.85;;;;;;;10.43;nan;-24108.31;5012446;28;20239;-70
2023/03/10 00:59:01;;;;;;;8.43;5.10;;;;;;;10.00;nan;-24096.31;5012922;28;20226;-72
2023/03/10 01:01:31;;;;;;;11.03;5.00;;;;;;;10.29;nan;-24104.38;5012284;28;20172;-70
2023/03/10 01:04:00;;;;;;;8.10;4.83;;;;;;;10.37;nan;-24106.75;5013597;28;20210;-72
2023/03/10 01:06:25;;;;;;;9.03;4.53;;;;;;;10.19;nan;-24101.81;5012154;28;20180;-71
2023/03/10 01:08:51;;;;;;;10.43;4.70;;;;;;;10.12;nan;-24099.84;5012059;28;20198;-71
2023/03/10 01:11:19;;;;;;;9.97;4.70;;;;;;;10.24;nan;-24103.09;5012167;28;20180;-71
2023/03/10 01:13:45;;;;;;;10.97;5.83;;;;;;;10.03;nan;-24097.16;5012172;28;20172;-69
2023/03/10 01:16:11;;;;;;;7.97;4.87;;;;;;;10.16;nan;-24100.97;5011797;28;20230;-71
2023/03/10 01:18:37;;;;;;;9.67;5.60;;;;;;;9.86;nan;-24092.34;5005468;28;20265;-72
2023/03/10 01:21:04;;;;;;;11.30;5.23;;;;;;;10.07;nan;-24098.28;5013936;28;20180;-71
2023/03/10 01:23:29;;;;;;;9.67;5.60;;;;;;;10.05;nan;-24097.88;5012601;28;20257;-72
2023/03/10 01:25:54;;;;;;;15.40;4.97;;;;;;;10.11;nan;-24099.41;5012572;28;20175;-71
2023/03/10 01:28:21;;;;;;;9.37;4.77;;;;;;;9.88;nan;-24092.91;5011847;28;20194;-70
2023/03/10 01:30:47;;;;;;;14.20;5.23;;;;;;;10.07;nan;-24098.28;5011998;28;20226;-72
2023/03/10 01:33:14;;;;;;;9.33;5.60;;;;;;;9.95;nan;-24094.91;5011817;28;20208;-71
2023/03/10 01:35:41;;;;;;;7.33;4.70;;;;;;;9.48;nan;-24081.91;5012034;28;20176;-71
2023/03/10 01:38:08;;;;;;;8.97;4.73;;;;;;;9.74;nan;-24089.25;5011772;28;20258;-71
2023/03/10 01:40:34;;;;;;;10.20;5.23;;;;;;;9.82;nan;-24091.38;5012021;28;20180;-72
2023/03/10 01:43:27;;;;;;;13.03;4.83;;;;;;;9.87;nan;-24092.63;5011821;28;20222;-72
2023/03/10 01:45:52;;;;;;;7.67;4.67;;;;;;;9.86;nan;-24092.34;5012114;28;20208;-71
2023/03/10 01:48:20;;;;;;;12.67;5.40;;;;;;;9.47;nan;-24081.47;5012036;28;20214;-73
2023/03/10 01:50:50;;;;;;;7.80;4.60;;;;;;;9.73;nan;-24088.97;5012015;28;20183;-70
2023/03/10 01:53:18;;;;;;;8.67;4.50;;;;;;;9.25;nan;-24075.53;5013491;28;20191;-69
2023/03/10 01:55:52;;;;;;;9.50;4.60;;;;;;;9.73;nan;-24088.97;5006506;28;20624;-69
2023/03/10 01:58:21;;;;;;;10.93;5.27;;;;;;;9.53;nan;-24083.31;5013559;28;20188;-70
2023/03/10 02:00:48;;;;;;;8.30;4.60;;;;;;;9.46;nan;-24081.19;5013016;28;20242;-70
2023/03/10 02:03:16;;;;;;;12.13;5.17;;;;;;;9.57;nan;-24084.44;5011912;28;20286;-71
2023/03/10 02:05:51;;;;;;;13.10;5.77;;;;;;;9.25;nan;-24075.53;5012167;28;20188;-72
2023/03/10 02:08:17;;;;;;;7.53;4.67;;;;;;;9.54;nan;-24083.47;5012078;28;20252;-72
2023/03/10 02:10:43;;;;;;;8.03;4.83;;;;;;;9.35;nan;-24078.09;5014316;28;20183;-72
2023/03/10 02:13:09;;;;;;;10.60;5.47;;;;;;;8.99;nan;-24068.19;5015393;28;20175;-72
2023/03/10 02:15:35;;;;;;;13.10;4.70;;;;;;;9.25;nan;-24075.53;5009024;28;20180;-72
2023/03/10 02:18:04;;;;;;;6.03;4.57;;;;;;;9.01;nan;-24068.75;5015722;28;20228;-71
2023/03/10 02:20:46;;;;;;;11.93;5.80;;;;;;;9.23;nan;-24074.84;5015043;28;20184;-70
2023/03/10 02:23:20;;;;;;;7.80;4.57;;;;;;;9.21;nan;-24074.25;5017803;28;20673;-72
2023/03/10 02:25:58;;;;;;;6.10;4.77;;;;;;;9.24;nan;-24075.13;5015642;28;20175;-71
2023/03/10 02:28:24;;;;;;;8.97;5.33;;;;;;;9.45;nan;-24081.06;5015482;28;20635;-71
2023/03/10 02:30:52;;;;;;;9.83;5.33;;;;;;;9.32;nan;-24077.53;5015324;28;20176;-69
2023/03/10 02:33:22;;;;;;;10.40;5.00;;;;;;;9.26;nan;-24075.81;5015115;28;20192;-70
2023/03/10 02:35:48;;;;;;;7.10;4.43;;;;;;;9.01;nan;-24068.63;5015157;28;20215;-72
2023/03/10 02:38:13;;;;;;;8.33;4.80;;;;;;;9.20;nan;-24074.13;5014753;28;20207;-70
2023/03/10 02:40:39;;;;;;;11.20;5.70;;;;;;;9.28;nan;-24076.38;5029468;28;20172;-72
2023/03/10 02:43:24;;;;;;;8.40;5.40;;;;;;;9.13;nan;-24072.00;5015245;28;20199;-72
2023/03/10 02:45:52;;;;;;;30.07;4.93;;;;;;;8.84;nan;-24064.09;5015278;28;20278;-72
2023/03/10 02:48:38;;;;;;;8.70;5.37;;;;;;;8.93;nan;-24066.50;5014663;28;20182;-71
2023/03/10 02:51:09;;;;;;;11.47;5.80;;;;;;;8.51;nan;-24054.75;5014755;28;20192;-73
2023/03/10 02:53:35;;;;;;;9.80;5.33;;;;;;;8.43;nan;-24052.63;5014929;28;20171;-70
2023/03/10 02:56:01;;;;;;;13.07;5.17;;;;;;;8.00;nan;-24040.44;5014535;28;20228;-70
2023/03/10 02:58:28;;;;;;;8.30;4.47;;;;;;;8.20;nan;-24045.97;5014583;28;20183;-71
2023/03/10 03:00:54;;;;;;;8.53;4.93;;;;;;;8.15;nan;-24044.56;5014410;28;20168;-71
2023/03/10 03:03:21;;;;;;;12.10;6.23;;;;;;;7.93;nan;-24038.59;5014562;28;20203;-72
2023/03/10 03:05:48;;;;;;;7.30;5.40;;;;;;;8.21;nan;-24046.41;5011625;28;20287;-73
2023/03/10 03:08:14;;;;;;;8.67;5.00;;;;;;;8.17;nan;-24045.13;5009743;28;20176;-73
2023/03/10 03:10:41;;;;;;;8.30;5.03;;;;;;;8.24;nan;-24047.25;5046143;28;20183;-69
2023/03/10 03:13:07;;;;;;;8.83;5.57;;;;;;;8.26;nan;-24047.66;5013972;28;20172;-70
2023/03/10 03:15:33;;;;;;;7.50;4.80;;;;;;;8.25;nan;-24047.38;5013841;28;20187;-69
2023/03/10 03:17:58;;;;;;;10.13;5.50;;;;;;;8.18;nan;-24045.41;5013844;28;20187;-70
2023/03/10 03:20:25;;;;;;;8.43;5.40;;;;;;;8.06;nan;-24042.16;5013296;28;20192;-69
2023/03/10 03:22:51;;;;;;;8.87;4.87;;;;;;;8.24;nan;-24047.09;5011637;28;20196;-72
2023/03/10 03:25:19;;;;;;;8.63;4.80;;;;;;;8.60;nan;-24057.16;5016046;28;20183;-70
2023/03/10 03:27:45;;;;;;;8.83;4.97;;;;;;;8.45;nan;-24052.91;5014167;28;20183;-71
2023/03/10 03:30:14;;;;;;;8.27;5.13;;;;;;;7.91;nan;-24038.03;5013906;28;20542;-72
2023/03/10 03:32:40;;;;;;;10.67;5.73;;;;;;;8.54;nan;-24055.47;5013642;28;20172;-70
2023/03/10 03:35:10;;;;;;;6.53;4.37;;;;;;;7.45;nan;-24025.00;5014132;28;20661;-69
2023/03/10 03:37:35;;;;;;;8.50;5.63;;;;;;;8.21;nan;-24046.25;5013662;28;20160;-74
2023/03/10 03:40:01;;;;;;;8.60;5.00;;;;;;;8.29;nan;-24048.66;5014254;28;20234;-71
2023/03/10 03:42:26;;;;;;;9.13;5.20;;;;;;;8.23;nan;-24046.81;5012757;28;20208;-72
2023/03/10 03:44:52;;;;;;;6.97;4.50;;;;;;;8.21;nan;-24046.25;5013740;28;20222;-72
2023/03/10 03:47:17;;;;;;;8.07;4.73;;;;;;;8.52;nan;-24055.03;5007225;28;20238;-72
2023/03/10 03:49:42;;;;;;;8.87;5.43;;;;;;;8.22;nan;-24046.53;5013616;28;20180;-71
2023/03/10 03:52:08;;;;;;;12.73;5.10;;;;;;;8.30;nan;-24048.81;5013685;28;20180;-73
2023/03/10 03:54:34;;;;;;;5.93;4.53;;;;;;;8.60;nan;-24057.28;5014907;28;20203;-70
2023/03/10 03:57:00;;;;;;;14.40;6.10;;;;;;;8.39;nan;-24051.34;5012192;28;20219;-70
2023/03/10 03:59:25;;;;;;;8.77;4.67;;;;;;;8.69;nan;-24059.84;5013672;28;20542;-71
2023/03/10 04:01:50;;;;;;;8.27;4.97;;;;;;;8.68;nan;-24059.56;5013183;28;20239;-70
2023/03/10 04:04:16;;;;;;;9.57;5.07;;;;;;;8.49;nan;-24054.03;5013607;28;20218;-72
2023/03/10 04:06:41;;;;;;;13.47;6.20;;;;;;;8.10;nan;-24043.13;5012396;28;20172;-74
2023/03/10 04:09:09;;;;;;;11.47;5.77;;;;;;;8.46;nan;-24053.19;5013400;28;20208;-69
2023/03/10 04:11:34;;;;;;;12.27;5.40;;;;;;;8.80;nan;-24062.94;5013119;28;20175;-73
2023/03/10 04:14:00;;;;;;;10.30;5.57;;;;;;;8.90;nan;-24065.66;5011919;28;20234;-72
2023/03/10 04:16:25;;;;;;;9.00;6.23;;;;;;;8.81;nan;-24063.09;5012702;28;20183;-70
2023/03/10 04:18:51;;;;;;;10.53;5.90;;;;;;;8.90;nan;-24065.50;5013046;28;20175;-73
2023/03/10 04:21:16;;;;;;;11.97;6.03;;;;;;;8.65;nan;-24058.72;5012745;28;20176;-71
2023/03/10 04:23:42;;;;;;;9.93;5.23;;;;;;;8.96;nan;-24067.19;4997472;28;20708;-72
2023/03/10 04:26:08;;;;;;;8.60;5.40;;;;;;;9.09;nan;-24071.03;4999166;28;20176;-73
2023/03/10 04:28:34;;;;;;;8.53;5.23;;;;;;;9.10;nan;-24071.31;5000499;28;20207;-71
2023/03/10 04:31:00;;;;;;;8.20;4.83;;;;;;;8.86;nan;-24064.66;4998463;28;20185;-71
2023/03/10 04:33:25;;;;;;;8.73;5.70;;;;;;;9.16;nan;-24072.84;4999116;28;20226;-70
2023/03/10 04:35:52;;;;;;;12.73;5.53;;;;;;;9.03;nan;-24069.31;4998476;28;20695;-70
2023/03/10 04:38:17;;;;;;;11.80;5.53;;;;;;;8.76;nan;-24061.69;4998524;28;20188;-71
2023/03/10 04:40:44;;;;;;;12.27;5.63;;;;;;;9.12;nan;-24071.72;4998367;28;20619;-71
2023/03/10 04:43:09;;;;;;;9.60;5.77;;;;;;;8.94;nan;-24066.63;4997649;28;20216;-70
2023/03/10 04:45:35;;;;;;;10.00;5.63;;;;;;;9.11;nan;-24071.44;4998874;28;20678;-71
2023/03/10 04:48:00;;;;;;;6.83;4.87;;;;;;;8.83;nan;-24063.81;4998036;28;20193;-70
2023/03/10 04:50:26;;;;;;;9.10;5.87;;;;;;;8.81;nan;-24063.25;5013722;28;20211;-70
2023/03/10 04:52:51;;;;;;;7.63;4.97;;;;;;;8.56;nan;-24056.16;4998460;28;20223;-69
2023/03/10 04:55:17;;;;;;;13.53;5.47;;;;;;;8.96;nan;-24067.19;4998291;28;20298;-73
2023/03/10 04:57:42;;;;;;;11.57;5.47;;;;;;;8.61;nan;-24057.56;5013293;28;20203;-71
2023/03/10 05:00:12;;;;;;;13.73;5.13;;;;;;;8.69;nan;-24059.69;4997934;28;20661;-72
2023/03/10 05:02:40;;;;;;;10.87;5.23;;;;;;;8.57;nan;-24056.44;5000531;28;20176;-74
2023/03/10 05:05:09;;;;;;;9.17;5.17;;;;;;;8.63;nan;-24058.16;4999645;28;20176;-72
2023/03/10 05:07:34;;;;;;;11.97;5.13;;;;;;;8.68;nan;-24059.41;4999149;28;20197;-72
2023/03/10 05:09:59;;;;;;;9.63;5.10;;;;;;;8.51;nan;-24054.59;4997276;28;20214;-71
2023/03/10 05:12:25;;;;;;;8.03;4.67;;;;;;;8.66;nan;-24059.00;4998489;28;20188;-72
2023/03/10 05:14:50;;;;;;;8.53;4.83;;;;;;;8.31;nan;-24049.09;4998117;28;20188;-70
2023/03/10 05:17:16;;;;;;;9.27;5.20;;;;;;;8.22;nan;-24046.53;4998384;28;20629;-71
2023/03/10 05:19:41;;;;;;;13.73;5.40;;;;;;;8.57;nan;-24056.44;5007387;28;20176;-69
2023/03/10 05:22:10;;;;;;;9.57;4.97;;;;;;;8.54;nan;-24055.47;5011058;28;20179;-73
2023/03/10 05:24:36;;;;;;;8.17;5.47;;;;;;;8.62;nan;-24057.88;5005019;28;20206;-71
2023/03/10 05:27:01;;;;;;;9.60;5.30;;;;;;;8.55;nan;-24055.88;5026929;28;20196;-70
2023/03/10 05:29:27;;;;;;;12.33;4.47;;;;;;;8.40;nan;-24051.63;5013947;28;20176;-71
2023/03/10 05:31:52;;;;;;;9.77;5.00;;;;;;;8.70;nan;-24059.97;5012191;28;20187;-71
2023/03/10 05:34:17;;;;;;;10.07;5.67;;;;;;;8.83;nan;-24063.66;5012007;28;20234;-73
2023/03/10 05:36:43;;;;;;;20.13;5.03;;;;;;;8.41;nan;-24051.91;5011887;28;20194;-72
2023/03/10 05:39:09;;;;;;;10.27;5.77;;;;;;;8.47;nan;-24053.47;5012268;28;20172;-71
2023/03/10 05:41:37;;;;;;;9.67;4.50;;;;;;;9.06;nan;-24070.16;5012562;28;20167;-72
2023/03/10 05:44:02;;;;;;;6.40;4.83;;;;;;;8.78;nan;-24062.25;5011676;28;20195;-71
2023/03/10 05:46:28;;;;;;;8.60;5.10;;;;;;;8.58;nan;-24056.72;5015045;28;20190;-70
2023/03/10 05:48:54;;;;;;;7.40;5.13;;;;;;;8.91;nan;-24065.78;5014119;28;20190;-72
2023/03/10 05:51:20;;;;;;;8.63;5.50;;;;;;;8.88;nan;-24064.94;5015965;28;20207;-73
2023/03/10 05:53:46;;;;;;;6.00;4.57;;;;;;;9.10;nan;-24071.31;5015514;28;20636;-72
2023/03/10 05:56:14;;;;;;;9.33;5.30;;;;;;;9.28;nan;-24076.25;5015191;28;20231;-70
2023/03/10 05:58:40;;;;;;;8.27;4.80;;;;;;;8.98;nan;-24067.75;5014771;28;20219;-73
2023/03/10 06:01:07;;;;;;;11.47;5.10;;;;;;;9.39;nan;-24079.34;5015062;28;20204;-73
2023/03/10 06:03:32;;;;;;;10.97;6.03;;;;;;;9.31;nan;-24077.09;5015368;28;20203;-73
2023/03/10 06:05:58;;;;;;;13.93;5.47;;;;;;;9.58;nan;-24084.72;5015453;28;20225;-72
2023/03/10 06:08:26;;;;;;;9.60;5.50;;;;;;;9.46;nan;-24081.34;5014920;28;20180;-73
2023/03/10 06:10:52;;;;;;;16.77;6.03;;;;;;;9.24;nan;-24075.25;5013845;28;20345;-74
2023/03/10 06:13:19;;;;;;;19.03;6.43;;;;;;;9.41;nan;-24079.78;5015334;28;20215;-74
2023/03/10 06:15:52;;;;;;;18.63;6.33;;;;;;;9.93;nan;-24094.47;5015182;28;20179;-75
2023/03/10 06:18:18;;;;;;;11.00;5.90;;;;;;;9.74;nan;-24089.09;5014916;28;20655;-74
2023/03/10 06:20:44;;;;;;;11.97;6.47;;;;;;;10.01;nan;-24096.59;5015067;28;20636;-73
2023/03/10 06:23:09;;;;;;;9.00;4.90;;;;;;;9.77;nan;-24090.09;5013542;28;20200;-75
2023/03/10 06:25:36;;;;;;;12.55;6.35;;;;;;;10.03;nan;-24097.31;5015019;28;20627;-72
2023/03/10 06:28:02;;;;;;;12.20;6.70;;;;;;;10.44;nan;-24108.59;5013845;28;20266;-74
2023/03/10 06:30:27;;;;;;;10.77;7.00;;;;;;;10.49;nan;-24110.00;5016274;28;20207;-71
2023/03/10 06:32:52;;;;;;;12.50;7.13;;;;;;;10.84;nan;-24119.75;5015335;28;20184;-72
2023/03/10 06:35:18;;;;;;;13.00;6.00;;;;;;;10.87;nan;-24120.59;5014502;28;20255;-72
2023/03/10 06:37:43;;;;;;;11.90;6.13;;;;;;;11.19;nan;-24129.59;5015173;28;20267;-73
2023/03/10 06:40:11;;;;;;;9.98;5.78;;;;;;;11.65;nan;-24142.28;5046281;28;20689;-72
2023/03/10 06:42:41;;;;;;;12.90;6.57;;;;;;;11.60;nan;-24141.03;5014914;28;20160;-72
2023/03/10 06:45:09;;;;;;;12.63;6.82;;;;;;;11.46;nan;-24137.22;5014875;28;20168;-70
2023/03/10 06:47:35;;;;;;;12.73;6.50;;;;;;;11.62;nan;-24141.44;5013395;28;20168;-73
2023/03/10 06:50:02;;;;;;;11.00;6.72;;;;;;;12.32;nan;-24161.16;5014687;28;20242;-72
2023/03/10 06:52:28;;;;;;;13.13;6.68;;;;;;;12.46;nan;-24164.81;5014942;28;20610;-72
2023/03/10 06:54:53;;;;;;;13.50;7.32;;;;;;;12.63;nan;-24169.75;5008118;28;20192;-73
2023/03/10 06:57:19;;;;;;;16.20;7.38;;;;;;;12.83;nan;-24175.38;5014549;28;20315;-71
2023/03/10 06:59:45;;;;;;;13.13;6.70;;;;;;;12.71;nan;-24171.84;5014883;28;20182;-75
2023/03/10 07:02:11;;;;;;;11.13;6.50;;;;;;;13.15;nan;-24184.09;5014593;28;20215;-71
2023/03/10 07:04:37;;;;;;;17.55;6.78;;;;;;;13.17;nan;-24184.66;5014200;28;20206;-71
2023/03/10 07:07:03;;;;;;;15.75;8.45;;;;;;;13.38;nan;-24190.56;5014216;28;20701;-71
2023/03/10 07:09:28;;;;;;;26.83;13.13;;;;;;;13.27;nan;-24187.59;5013722;28;20172;-73
2023/03/10 07:11:53;;;;;;;27.13;14.40;;;;;;;13.59;nan;-24196.44;5012714;28;20172;-72
2023/03/10 07:14:19;;;;;;;27.48;12.63;;;;;;;13.60;nan;-24196.59;5014675;28;20231;-72
2023/03/10 07:16:45;;;;;;;27.08;11.60;;;;;;;13.49;nan;-24193.63;5014232;28;20172;-71
2023/03/10 07:19:11;;;;;;;21.73;7.72;;;;;;;14.06;nan;-24209.34;5015317;28;20711;-73
2023/03/10 07:21:36;;;;;;;10.57;6.38;;;;;;;13.42;nan;-24191.53;5031693;28;20248;-70
2023/03/10 07:24:02;;;;;;;12.13;5.72;;;;;;;13.80;nan;-24202.19;5029266;28;20212;-73
2023/03/10 07:26:27;;;;;;;14.88;6.78;;;;;;;14.29;nan;-24215.81;5014408;28;20176;-73
2023/03/10 07:28:53;;;;;;;9.95;5.70;;;;;;;13.99;nan;-24207.41;5013796;28;20259;-71
2023/03/10 07:31:18;;;;;;;11.60;6.18;;;;;;;14.25;nan;-24214.56;5015074;28;20195;-73
2023/03/10 07:33:44;;;;;;;10.23;5.60;;;;;;;14.42;nan;-24219.47;5013805;28;20202;-72
2023/03/10 07:36:12;;;;;;;8.95;5.45;;;;;;;14.39;nan;-24218.63;5012619;28;20172;-73
2023/03/10 07:38:39;;;;;;;15.23;5.45;;;;;;;14.70;nan;-24227.19;5012567;28;20619;-71
2023/03/10 07:41:14;;;;;;;10.65;5.70;;;;;;;14.74;nan;-24228.16;5013610;28;20217;-75
2023/03/10 07:43:39;;;;;;;11.98;6.47;;;;;;;15.04;nan;-24236.72;5013415;28;20196;-73
2023/03/10 07:46:06;;;;;;;21.35;6.93;;;;;;;15.37;nan;-24245.66;5012556;28;20188;-74
2023/03/10 07:48:32;;;;;;;15.85;7.90;;;;;;;15.40;nan;-24246.50;5012372;28;20180;-75
2023/03/10 07:50:58;;;;;;;14.02;7.57;;;;;;;15.73;nan;-24255.75;5012561;28;20187;-70
2023/03/10 07:53:24;;;;;;;16.20;7.03;;;;;;;15.35;nan;-24245.25;5012932;28;20172;-72
2023/03/10 07:55:51;;;;;;;15.57;7.28;;;;;;;15.74;nan;-24256.03;5012448;28;20290;-74
2023/03/10 07:58:16;;;;;;;13.07;6.82;;;;;;;15.83;nan;-24258.41;5012677;28;20187;-75
2023/03/10 08:00:42;;;;;;;13.52;7.35;;;;;;;16.09;nan;-24265.56;5012871;28;20194;-73
2023/03/10 08:03:07;;;;;;;14.05;6.63;;;;;;;16.04;nan;-24264.16;5013103;28;20206;-73
2023/03/10 08:05:32;;;;;;;17.80;8.15;;;;;;;15.87;nan;-24259.66;5012350;28;20632;-74
2023/03/10 08:07:58;;;;;;;12.45;6.60;;;;;;;15.51;nan;-24249.59;5012144;28;20176;-73
2023/03/10 08:10:24;;;;;;;19.92;7.05;;;;;;;15.49;nan;-24249.16;5012570;28;20176;-72
2023/03/10 08:12:49;;;;;;;15.52;7.68;;;;;;;15.51;nan;-24249.47;5012616;28;20195;-75
2023/03/10 08:15:15;;;;;;;15.38;8.35;;;;;;;15.09;nan;-24237.81;5012733;28;20183;-73
2023/03/10 08:17:40;;;;;;;13.88;7.40;;;;;;;15.32;nan;-24244.28;5012538;28;20547;-71
2023/03/10 08:20:07;;;;;;;16.30;7.72;;;;;;;15.28;nan;-24243.28;5012422;28;20182;-71
2023/03/10 08:22:32;;;;;;;16.02;7.35;;;;;;;15.63;nan;-24252.94;5012545;28;20256;-71
2023/03/10 08:24:58;;;;;;;11.43;6.82;;;;;;;15.26;nan;-24242.59;5012101;28;20199;-71
2023/03/10 08:27:25;;;;;;;13.85;7.15;;;;;;;15.24;nan;-24242.16;5011256;28;20659;-71
2023/03/10 08:29:50;;;;;;;27.80;6.78;;;;;;;15.47;nan;-24248.47;5012518;28;20207;-72
2023/03/10 08:32:16;;;;;;;12.80;6.47;;;;;;;15.59;nan;-24251.69;5012106;28;20204;-72
2023/03/10 08:34:42;;;;;;;10.02;5.32;;;;;;;15.82;nan;-24258.13;5013841;28;20222;-72
2023/03/10 08:37:09;;;;;;;8.88;5.70;;;;;;;15.48;nan;-24248.91;5012171;28;20169;-72
2023/03/10 08:39:34;;;;;;;10.13;5.57;;;;;;;15.74;nan;-24256.03;5011905;28;20246;-73
2023/03/10 08:42:00;;;;;;;9.43;4.75;;;;;;;15.88;nan;-24259.81;5012100;28;20645;-73
2023/03/10 08:44:25;;;;;;;7.13;4.75;;;;;;;16.19;nan;-24268.34;5011964;28;20194;-70
2023/03/10 08:46:51;;;;;;;7.28;4.50;;;;;;;16.10;nan;-24265.97;5010370;28;20179;-71
2023/03/10 08:49:18;;;;;;;8.65;4.85;;;;;;;15.95;nan;-24261.78;5011811;28;20609;-72
2023/03/10 08:51:44;;;;;;;8.48;4.82;;;;;;;15.78;nan;-24257.16;5012202;28;20176;-71
2023/03/10 08:54:12;;;;;;;10.10;4.35;;;;;;;16.12;nan;-24266.38;5012459;28;20712;-74
2023/03/10 08:56:38;;;;;;;8.35;4.53;;;;;;;16.18;nan;-24268.22;5012025;28;20310;-72
2023/03/10 08:59:04;;;;;;;12.52;5.18;;;;;;;16.09;nan;-24265.56;5027236;28;20207;-74
2023/03/10 09:01:35;;;;;;;9.20;4.57;;;;;;;16.19;nan;-24268.47;5012398;28;20608;-71
2023/03/10 09:04:02;;;;;;;10.85;5.10;;;;;;;16.47;nan;-24276.16;5012234;28;20227;-73
2023/03/10 09:06:28;;;;;;;9.02;5.18;;;;;;;16.67;nan;-24281.78;5011374;28;20275;-72
2023/03/10 09:08:53;;;;;;;8.02;4.93;;;;;;;16.49;nan;-24276.72;5012344;28;20693;-74
2023/03/10 09:11:23;;;;;;;7.47;4.78;;;;;;;16.47;nan;-24276.03;5012763;28;20220;-72
2023/03/10 09:13:49;;;;;;;8.75;4.93;;;;;;;16.70;nan;-24282.59;5012992;28;20180;-74
2023/03/10 09:16:15;;;;;;;8.07;4.55;;;;;;;16.56;nan;-24278.69;5027653;28;20279;-72
2023/03/10 09:18:41;;;;;;;8.65;4.57;;;;;;;16.83;nan;-24285.97;5012035;28;20191;-72
2023/03/10 09:21:07;;;;;;;8.25;4.55;;;;;;;17.03;nan;-24291.53;5010780;28;20186;-73
2023/03/10 09:23:32;;;;;;;9.52;4.45;;;;;;;16.63;nan;-24280.50;5012254;28;20204;-72
2023/03/10 09:25:58;;;;;;;6.55;4.47;;;;;;;16.77;nan;-24284.56;5011817;28;20239;-74
2023/03/10 09:28:23;;;;;;;9.15;4.80;;;;;;;16.56;nan;-24278.69;5012219;28;20233;-74
2023/03/10 09:30:49;;;;;;;8.18;4.38;;;;;;;16.23;nan;-24269.59;5012158;28;20189;-73
2023/03/10 09:33:19;;;;;;;6.20;4.07;;;;;;;16.12;nan;-24266.53;5010636;28;20758;-71
2023/03/10 09:35:46;;;;;;;11.55;4.30;;;;;;;16.36;nan;-24273.09;5014177;28;20694;-69
2023/03/10 09:38:12;;;;;;;8.82;4.60;;;;;;;16.90;nan;-24288.06;5011982;28;20203;-74
2023/03/10 09:40:40;;;;;;;5.25;3.58;;;;;;;16.67;nan;-24281.78;5011993;28;20200;-74
2023/03/10 09:43:11;;;;;;;5.65;3.30;;;;;;;16.71;nan;-24282.75;5012062;28;20202;-71
2023/03/10 09:45:41;;;;;;;5.25;3.45;;;;;;;16.48;nan;-24276.44;5011019;28;20737;-71
2023/03/10 09:48:31;;;;;;;5.93;3.38;;;;;;;16.83;nan;-24286.09;5011717;28;20263;-70
2023/03/10 09:50:58;;;;;;;5.10;3.25;;;;;;;16.83;nan;-24286.09;5031720;28;20176;-70
2023/03/10 09:53:42;;;;;;;9.65;4.13;;;;;;;17.08;nan;-24293.09;5031241;28;20183;-72
2023/03/10 09:56:32;;;;;;;7.22;3.90;;;;;;;17.14;nan;-24294.63;5017022;28;20235;-71
2023/03/10 09:59:04;;;;;;;4.40;3.08;;;;;;;17.21;nan;-24296.56;5007788;28;20290;-71
2023/03/10 10:01:31;;;;;;;8.10;3.47;;;;;;;17.51;nan;-24304.81;5011964;28;20191;-73
2023/03/10 10:04:06;;;;;;;4.72;3.38;;;;;;;17.34;nan;-24300.19;5011497;28;20200;-72
2023/03/10 10:06:35;;;;;;;8.25;3.92;;;;;;;17.56;nan;-24306.34;5011129;28;20171;-71
2023/03/10 10:09:42;;;;;;;14.32;4.10;;;;;;;17.85;nan;-24314.16;5043949;28;20279;-74
2023/03/10 10:12:16;;;;;;;6.95;4.20;;;;;;;17.51;nan;-24304.81;5020608;28;20188;-72
2023/03/10 10:14:42;;;;;;;8.20;3.42;;;;;;;17.21;nan;-24296.72;5014443;28;20172;-72
2023/03/10 10:17:46;;;;;;;9.68;3.28;;;;;;;17.43;nan;-24302.56;5013291;28;20176;-71
2023/03/10 10:20:24;;;;;;;5.45;3.40;;;;;;;17.41;nan;-24302.00;5011916;28;20183;-71
2023/03/10 10:22:50;;;;;;;5.38;3.13;;;;;;;17.75;nan;-24311.38;5012274;28;20196;-70
2023/03/10 10:25:22;;;;;;;7.35;3.53;;;;;;;18.05;nan;-24319.88;5011703;28;20171;-72
2023/03/10 10:27:52;;;;;;;6.65;3.58;;;;;;;18.15;nan;-24322.38;5011855;28;20172;-73
2023/03/10 10:30:36;;;;;;;6.05;3.38;;;;;;;17.73;nan;-24310.81;5012418;28;20252;-72
2023/03/10 10:33:02;;;;;;;6.60;3.40;;;;;;;17.88;nan;-24315.00;5014341;28;20624;-71
2023/03/10 10:35:31;;;;;;;7.72;3.42;;;;;;;17.95;nan;-24317.09;5046938;28;20180;-73
2023/03/10 10:38:03;;;;;;;5.10;3.63;;;;;;;17.91;nan;-24315.81;5016506;28;20629;-72
2023/03/10 10:40:33;;;;;;;6.15;3.40;;;;;;;17.73;nan;-24310.94;5047114;28;20183;-71
2023/03/10 10:43:04;;;;;;;4.40;2.85;;;;;;;17.99;nan;-24318.19;5015507;28;20523;-71
2023/03/10 10:45:38;;;;;;;5.93;3.25;;;;;;;18.07;nan;-24320.44;5015135;28;20180;-72
2023/03/10 10:48:05;;;;;;;4.05;2.92;;;;;;;18.25;nan;-24325.31;5015195;28;20599;-74
2023/03/10 10:50:32;;;;;;;4.90;2.40;;;;;;;18.51;nan;-24332.41;5014850;28;20180;-73
2023/03/10 10:53:34;;;;;;;4.40;3.25;;;;;;;18.49;nan;-24331.84;5015135;28;20198;-72
2023/03/10 10:56:02;;;;;;;5.18;3.15;;;;;;;18.77;nan;-24339.66;5013805;28;20227;-69
2023/03/10 10:58:32;;;;;;;3.55;2.40;;;;;;;18.94;nan;-24344.25;5014776;28;20218;-72
2023/03/10 11:01:02;;;;;;;6.28;2.60;;;;;;;18.94;nan;-24344.25;5014616;28;20168;-73
2023/03/10 11:03:36;;;;;;;4.32;2.50;;;;;;;18.69;nan;-24337.44;5014777;28;20200;-73
2023/03/10 11:06:17;;;;;;;3.72;2.50;;;;;;;18.59;nan;-24334.63;5014975;28;20183;-73
2023/03/10 11:08:49;;;;;;;3.50;2.28;;;;;;;18.51;nan;-24332.56;5014646;28;20160;-74
2023/03/10 11:11:37;;;;;;;4.10;2.53;;;;;;;18.52;nan;-24332.69;5014925;28;20558;-72
2023/03/10 11:14:34;;;;;;;3.25;2.35;;;;;;;18.22;nan;-24324.47;5014946;28;20163;-72
2023/03/10 11:17:13;;;;;;;3.83;2.22;;;;;;;18.32;nan;-24327.13;5014608;28;20231;-73
2023/03/10 11:19:59;;;;;;;3.35;2.40;;;;;;;18.62;nan;-24335.47;5013907;28;20718;-73
2023/03/10 11:22:43;;;;;;;4.80;2.30;;;;;;;18.63;nan;-24335.63;5014030;28;20165;-72
2023/03/10 11:25:46;;;;;;;2.78;2.10;;;;;;;19.15;nan;-24350.09;5013601;28;20290;-73
2023/03/10 11:28:21;;;;;;;3.50;2.65;;;;;;;19.38;nan;-24356.34;5013038;28;20176;-64
2023/03/10 11:30:55;;;;;;;2.05;1.85;;;;;;;19.64;nan;-24363.44;5013764;28;20172;-62
2023/03/10 11:33:32;;;;;;;3.80;2.22;;;;;;;19.85;nan;-24369.28;5011963;28;20691;-64
2023/03/10 11:36:23;;;;;;;3.17;2.05;;;;;;;19.58;nan;-24361.91;4993596;28;20161;-64
2023/03/10 11:38:57;;;;;;;2.53;2.10;;;;;;;19.69;nan;-24364.97;4992784;28;20656;-64
2023/03/10 11:41:27;;;;;;;4.03;2.53;;;;;;;19.71;nan;-24365.41;4994579;28;20249;-63
2023/03/10 11:44:11;;;;;;;4.55;2.28;;;;;;;19.76;nan;-24366.94;5011505;28;20188;-65
2023/03/10 11:46:57;;;;;;;4.65;2.72;;;;;;;19.41;nan;-24357.34;5012998;28;20184;-64